createdAt,value
2022-12-01T00:00:17.338Z,68.62
2022-12-01T00:03:06.650Z,68.64
2022-12-01T00:05:35.472Z,68.97
2022-12-01T00:08:05.273Z,68.68
2022-12-01T00:10:33.519Z,68.57
2022-12-01T00:13:04.732Z,68.40
2022-12-01T00:15:36.953Z,68.72
2022-12-01T00:18:06.230Z,68.94
2022-12-01T00:20:35.533Z,68.84
2022-12-01T00:23:04.741Z,68.57
2022-12-01T00:25:33.539Z,68.71
2022-12-01T00:28:04.102Z,68.90
2022-12-01T00:30:32.959Z,68.90
2022-12-01T00:33:02.075Z,68.58
2022-12-01T00:35:30.807Z,68.83
2022-12-01T00:37:59.961Z,68.74
2022-12-01T00:40:28.741Z,68.97
2022-12-01T00:42:57.871Z,68.76
2022-12-01T00:45:28.051Z,68.43
2022-12-01T00:47:57.176Z,68.46
2022-12-01T00:50:26.021Z,68.67
2022-12-01T00:52:55.092Z,68.65
2022-12-01T00:55:23.833Z,69.00
2022-12-01T00:57:52.934Z,68.85
2022-12-01T01:00:21.936Z,68.99
2022-12-01T01:02:52.468Z,68.95
2022-12-01T01:05:21.330Z,68.79
2022-12-01T01:07:50.496Z,68.62
2022-12-01T01:10:19.412Z,68.73
2022-12-01T01:12:48.470Z,68.76
2022-12-01T01:15:17.213Z,68.80
2022-12-01T01:17:46.364Z,68.82
2022-12-01T01:20:16.471Z,68.89
2022-12-01T01:22:45.639Z,68.70
2022-12-01T01:25:14.340Z,68.71
2022-12-01T01:27:43.453Z,68.73
2022-12-01T01:30:13.232Z,68.75
2022-12-01T01:32:42.376Z,68.85
2022-12-01T01:35:11.233Z,68.87
2022-12-01T01:37:41.808Z,68.61
2022-12-01T01:40:11.435Z,68.83
2022-12-01T01:42:40.600Z,68.58
2022-12-01T01:45:15.195Z,68.57
2022-12-01T01:47:44.306Z,68.74
2022-12-01T01:50:14.031Z,68.77
2022-12-01T01:52:45.400Z,68.75
2022-12-01T01:55:14.130Z,68.91
2022-12-01T01:57:43.426Z,69.00
2022-12-01T02:00:15.004Z,68.89
2022-12-01T02:02:44.764Z,68.70
2022-12-01T02:05:14.438Z,68.72
2022-12-01T02:07:45.667Z,68.75
2022-12-01T02:10:14.621Z,69.01
2022-12-01T02:12:47.900Z,69.02
2022-12-01T02:15:19.281Z,68.79
2022-12-01T02:17:49.336Z,69.02
2022-12-01T02:20:35.964Z,68.82
2022-12-01T02:23:19.971Z,68.99
2022-12-01T02:25:50.230Z,69.10
2022-12-01T02:28:30.612Z,68.86
2022-12-01T02:31:01.600Z,68.85
2022-12-01T02:33:33.222Z,69.14
2022-12-01T02:36:02.873Z,69.10
2022-12-01T02:38:32.502Z,68.88
2022-12-01T02:41:02.729Z,68.95
2022-12-01T02:43:33.431Z,68.73
2022-12-01T02:46:05.949Z,68.98
2022-12-01T02:48:36.562Z,69.02
2022-12-01T02:51:06.251Z,69.07
2022-12-01T02:53:35.423Z,68.84
2022-12-01T02:56:06.823Z,68.83
2022-12-01T02:58:35.949Z,69.04
2022-12-01T03:01:11.624Z,68.98
2022-12-01T03:03:54.547Z,69.02
2022-12-01T03:06:25.889Z,68.91
2022-12-01T03:08:57.632Z,69.13
2022-12-01T03:11:28.955Z,68.92
2022-12-01T03:14:00.723Z,68.86
2022-12-01T03:16:33.722Z,68.89
2022-12-01T03:19:05.135Z,69.19
2022-12-01T03:21:34.620Z,69.07
2022-12-01T03:24:05.495Z,69.13
2022-12-01T03:26:34.615Z,69.04
2022-12-01T03:29:05.096Z,69.01
2022-12-01T03:31:40.952Z,68.89
2022-12-01T03:34:11.338Z,68.89
2022-12-01T03:36:40.999Z,68.90
2022-12-01T03:39:12.054Z,69.08
2022-12-01T03:41:41.745Z,69.25
2022-12-01T03:44:12.181Z,68.87
2022-12-01T03:46:44.807Z,69.07
2022-12-01T03:49:14.268Z,68.69
2022-12-01T03:51:44.938Z,69.18
2022-12-01T03:54:15.729Z,69.07
2022-12-01T03:56:45.293Z,68.96
2022-12-01T03:59:14.710Z,68.98
2022-12-01T04:01:45.160Z,68.87
2022-12-01T04:04:14.809Z,69.06
2022-12-01T04:06:44.529Z,68.93
2022-12-01T04:09:14.019Z,69.00
2022-12-01T04:12:00.314Z,68.97
2022-12-01T04:14:30.231Z,69.11
2022-12-01T04:17:00.628Z,68.93
2022-12-01T04:19:29.866Z,68.87
2022-12-01T04:21:58.900Z,68.73
2022-12-01T04:24:28.194Z,68.94
2022-12-01T04:26:57.250Z,68.74
2022-12-01T04:29:26.528Z,69.13
2022-12-01T04:31:55.542Z,68.90
2022-12-01T04:34:26.455Z,69.08
2022-12-01T04:36:55.449Z,68.79
2022-12-01T04:39:24.798Z,68.68
2022-12-01T04:41:53.865Z,68.93
2022-12-01T04:44:23.203Z,68.76
2022-12-01T04:46:52.420Z,69.15
2022-12-01T04:49:22.095Z,69.18
2022-12-01T04:51:52.529Z,68.99
2022-12-01T04:54:22.392Z,68.89
2022-12-01T04:56:51.515Z,68.83
2022-12-01T04:59:20.992Z,68.82
2022-12-01T05:01:50.059Z,68.80
2022-12-01T05:04:19.430Z,68.79
2022-12-01T05:06:48.491Z,68.96
2022-12-01T05:09:21.166Z,68.92
2022-12-01T05:11:50.154Z,68.74
2022-12-01T05:14:19.550Z,68.95
2022-12-01T05:16:48.643Z,68.46
2022-12-01T05:19:35.332Z,68.72
2022-12-01T05:22:04.341Z,68.92
2022-12-01T05:24:35.309Z,68.55
2022-12-01T05:27:04.339Z,68.54
2022-12-01T05:29:35.991Z,68.50
2022-12-01T05:32:05.341Z,68.53
2022-12-01T05:34:34.755Z,68.47
2022-12-01T05:37:03.927Z,68.44
2022-12-01T05:39:33.291Z,68.83
2022-12-01T05:42:03.732Z,68.66
2022-12-01T05:44:33.132Z,68.58
2022-12-01T05:47:02.159Z,68.32
2022-12-01T05:49:31.557Z,68.53
2022-12-01T05:52:00.582Z,68.35
2022-12-01T05:54:30.921Z,68.50
2022-12-01T05:57:00.115Z,68.29
2022-12-01T05:59:30.968Z,68.33
2022-12-01T06:01:59.938Z,68.38
2022-12-01T06:04:29.341Z,68.40
2022-12-01T06:06:58.352Z,68.63
2022-12-01T06:09:27.759Z,68.55
2022-12-01T06:11:56.747Z,68.46
2022-12-01T06:14:26.030Z,68.56
2022-12-01T06:16:56.435Z,68.43
2022-12-01T06:19:25.823Z,68.50
2022-12-01T06:21:54.808Z,68.38
2022-12-01T06:24:24.175Z,68.71
2022-12-01T06:26:53.129Z,68.38
2022-12-01T06:29:22.511Z,68.54
2022-12-01T06:31:51.577Z,68.53
2022-12-01T06:34:22.571Z,68.43
2022-12-01T06:36:51.574Z,68.64
2022-12-01T06:39:21.014Z,68.41
2022-12-01T06:41:50.096Z,68.65
2022-12-01T06:44:19.433Z,68.53
2022-12-01T06:46:52.887Z,68.53
2022-12-01T06:49:23.884Z,68.08
2022-12-01T06:51:52.923Z,68.39
2022-12-01T06:54:22.604Z,68.32
2022-12-01T06:56:51.912Z,68.19
2022-12-01T06:59:21.688Z,68.35
2022-12-01T07:01:51.033Z,68.30
2022-12-01T07:04:20.532Z,68.12
2022-12-01T07:06:50.933Z,68.51
2022-12-01T07:09:20.420Z,68.39
2022-12-01T07:11:49.394Z,68.57
2022-12-01T07:14:20.287Z,68.52
2022-12-01T07:16:49.372Z,68.36
2022-12-01T07:19:18.836Z,68.30
2022-12-01T07:21:47.822Z,68.41
2022-12-01T07:24:18.596Z,68.35
2022-12-01T07:26:48.274Z,68.04
2022-12-01T07:29:17.853Z,68.41
2022-12-01T07:31:47.034Z,68.53
2022-12-01T07:34:16.485Z,68.14
2022-12-01T07:36:45.515Z,68.31
2022-12-01T07:39:15.006Z,68.30
2022-12-01T07:41:45.394Z,68.61
2022-12-01T07:44:14.990Z,68.20
2022-12-01T07:46:44.022Z,68.42
2022-12-01T07:49:15.713Z,68.43
2022-12-01T07:51:44.645Z,68.59
2022-12-01T07:54:15.449Z,68.34
2022-12-01T07:56:45.910Z,68.47
2022-12-01T07:59:15.382Z,68.32
2022-12-01T08:01:45.102Z,68.34
2022-12-01T08:04:14.568Z,68.55
2022-12-01T08:06:43.593Z,68.20
2022-12-01T08:09:12.979Z,68.66
2022-12-01T08:11:41.967Z,68.37
2022-12-01T08:14:12.642Z,68.45
2022-12-01T08:16:41.675Z,68.58
2022-12-01T08:19:11.252Z,68.12
2022-12-01T08:21:40.322Z,68.44
2022-12-01T08:24:09.814Z,68.61
2022-12-01T08:26:38.816Z,68.33
2022-12-01T08:29:08.212Z,68.76
2022-12-01T08:31:40.387Z,68.42
2022-12-01T08:34:09.947Z,68.40
2022-12-01T08:36:38.988Z,68.46
2022-12-01T08:39:08.684Z,68.53
2022-12-01T08:41:37.683Z,67.96
2022-12-01T08:44:07.095Z,68.21
2022-12-01T08:46:36.565Z,68.27
2022-12-01T08:49:07.635Z,68.05
2022-12-01T08:51:37.415Z,67.88
2022-12-01T08:54:06.861Z,67.93
2022-12-01T08:56:37.587Z,68.06
2022-12-01T08:59:07.067Z,68.42
2022-12-01T09:01:52.153Z,68.14
2022-12-01T09:04:24.137Z,68.24
2022-12-01T09:06:53.559Z,68.04
2022-12-01T09:09:23.546Z,68.08
2022-12-01T09:11:53.440Z,68.19
2022-12-01T09:14:23.533Z,68.00
2022-12-01T09:16:52.875Z,68.21
2022-12-01T09:19:25.019Z,68.15
2022-12-01T09:21:54.369Z,68.21
2022-12-01T09:24:23.728Z,68.29
2022-12-01T09:26:55.017Z,68.33
2022-12-01T09:29:24.605Z,68.10
2022-12-01T09:31:56.364Z,68.00
2022-12-01T09:34:27.620Z,68.25
2022-12-01T09:36:56.859Z,67.96
2022-12-01T09:39:26.321Z,68.13
2022-12-01T09:41:55.966Z,68.21
2022-12-01T09:44:31.501Z,68.10
2022-12-01T09:47:02.265Z,67.87
2022-12-01T09:49:36.865Z,68.33
2022-12-01T09:52:06.105Z,68.21
2022-12-01T09:54:35.536Z,67.96
2022-12-01T09:57:05.105Z,67.76
2022-12-01T09:59:35.451Z,68.23
2022-12-01T10:02:05.397Z,68.52
2022-12-01T10:04:37.620Z,67.94
2022-12-01T10:07:07.768Z,68.15
2022-12-01T10:09:40.690Z,68.51
2022-12-01T10:12:12.972Z,68.33
2022-12-01T10:14:42.443Z,68.36
2022-12-01T10:17:14.832Z,68.34
2022-12-01T10:19:46.946Z,68.29
2022-12-01T10:22:27.907Z,68.10
2022-12-01T10:24:59.899Z,68.04
2022-12-01T10:27:32.713Z,68.56
2022-12-01T10:30:03.675Z,68.27
2022-12-01T10:32:35.097Z,68.42
2022-12-01T10:35:06.293Z,68.47
2022-12-01T10:37:35.494Z,68.30
2022-12-01T10:40:05.162Z,68.13
2022-12-01T10:42:36.152Z,68.23
2022-12-01T10:45:07.294Z,68.42
2022-12-01T10:47:36.415Z,68.23
2022-12-01T10:50:08.129Z,68.08
2022-12-01T10:52:38.311Z,68.21
2022-12-01T10:55:24.986Z,68.23
2022-12-01T10:57:54.157Z,67.62
2022-12-01T11:00:57.539Z,67.87
2022-12-01T11:03:21.721Z,68.01
2022-12-01T11:05:54.194Z,68.30
2022-12-01T11:08:23.730Z,67.90
2022-12-01T11:10:53.421Z,68.02
2022-12-01T11:13:23.567Z,67.84
2022-12-01T11:15:53.729Z,68.02
2022-12-01T11:18:23.680Z,68.04
2022-12-01T11:21:05.739Z,68.02
2022-12-01T11:23:36.713Z,68.08
2022-12-01T11:26:15.855Z,67.83
2022-12-01T11:28:52.383Z,68.14
2022-12-01T11:31:22.392Z,68.09
2022-12-01T11:33:52.522Z,68.29
2022-12-01T11:36:24.305Z,68.26
2022-12-01T11:38:56.230Z,68.22
2022-12-01T11:41:33.993Z,68.49
2022-12-01T11:44:04.198Z,68.18
2022-12-01T11:46:37.019Z,68.16
2022-12-01T11:49:06.100Z,68.04
2022-12-01T11:51:38.149Z,68.21
2022-12-01T11:54:20.171Z,67.94
2022-12-01T11:57:17.321Z,68.01
2022-12-01T11:59:39.229Z,67.90
2022-12-01T12:02:12.732Z,68.08
2022-12-01T12:04:46.108Z,68.14
2022-12-01T12:07:18.479Z,68.25
2022-12-01T12:09:51.125Z,68.01
2022-12-01T12:12:24.376Z,67.87
2022-12-01T12:14:56.320Z,68.16
2022-12-01T12:17:29.533Z,67.60
2022-12-01T12:20:09.796Z,67.77
2022-12-01T12:22:44.119Z,67.82
2022-12-01T12:25:20.778Z,67.99
2022-12-01T12:27:52.145Z,67.81
2022-12-01T12:30:22.287Z,67.84
2022-12-01T12:33:05.786Z,67.92
2022-12-01T12:35:36.385Z,67.63
2022-12-01T12:38:10.438Z,67.79
2022-12-01T12:40:42.623Z,67.60
2022-12-01T12:43:19.486Z,67.67
2022-12-01T12:45:51.431Z,67.99
2022-12-01T12:48:24.091Z,67.76
2022-12-01T12:50:57.076Z,67.91
2022-12-01T12:53:29.020Z,67.81
2022-12-01T12:55:59.455Z,67.83
2022-12-01T12:58:30.140Z,67.83
2022-12-01T13:01:00.315Z,68.00
2022-12-01T13:03:34.251Z,67.88
2022-12-01T13:06:05.029Z,67.98
2022-12-01T13:08:36.990Z,67.93
2022-12-01T13:11:06.744Z,67.70
2022-12-01T13:13:38.308Z,67.54
2022-12-01T13:16:08.563Z,67.92
2022-12-01T13:18:40.895Z,67.98
2022-12-01T13:21:10.861Z,68.15
2022-12-01T13:23:41.793Z,67.80
2022-12-01T13:26:10.829Z,68.01
2022-12-01T13:28:42.525Z,67.76
2022-12-01T13:31:12.169Z,67.88
2022-12-01T13:33:43.230Z,67.69
2022-12-01T13:36:45.071Z,67.54
2022-12-01T13:39:06.724Z,67.57
2022-12-01T13:41:38.106Z,67.48
2022-12-01T13:44:08.088Z,67.87
2022-12-01T13:46:51.810Z,67.83
2022-12-01T13:49:35.017Z,67.74
2022-12-01T13:52:22.605Z,67.76
2022-12-01T13:55:02.508Z,67.57
2022-12-01T13:57:32.540Z,67.83
2022-12-01T14:00:24.247Z,67.47
2022-12-01T14:03:11.808Z,67.48
2022-12-01T14:05:44.968Z,67.45
2022-12-01T14:08:23.456Z,67.53
2022-12-01T14:10:55.527Z,67.26
2022-12-01T14:13:24.636Z,67.58
2022-12-01T14:15:55.474Z,67.59
2022-12-01T14:18:29.161Z,67.89
2022-12-01T14:20:58.533Z,67.79
2022-12-01T14:23:29.254Z,67.81
2022-12-01T14:26:05.653Z,67.70
2022-12-01T14:28:53.069Z,67.52
2022-12-01T14:31:22.545Z,67.70
2022-12-01T14:33:52.446Z,67.74
2022-12-01T14:36:28.645Z,67.62
2022-12-01T14:39:01.658Z,67.68
2022-12-01T14:41:33.008Z,68.03
2022-12-01T14:44:04.920Z,67.97
2022-12-01T14:46:37.358Z,68.07
2022-12-01T14:49:06.533Z,67.78
2022-12-01T14:51:36.550Z,67.57
2022-12-01T14:54:10.142Z,67.52
2022-12-01T14:56:40.914Z,67.88
2022-12-01T14:59:15.847Z,67.65
2022-12-01T15:01:45.303Z,68.00
2022-12-01T15:04:14.360Z,67.61
2022-12-01T15:06:43.768Z,68.11
2022-12-01T15:12:07.767Z,68.10
2022-12-01T15:14:37.542Z,68.06
2022-12-01T15:17:09.191Z,67.66
2022-12-01T15:19:39.315Z,67.38
2022-12-01T15:22:11.832Z,67.62
2022-12-01T15:24:40.863Z,67.46
2022-12-01T15:27:25.101Z,67.66
2022-12-01T15:29:54.313Z,67.79
2022-12-01T15:32:24.183Z,67.64
2022-12-01T15:34:53.881Z,67.63
2022-12-01T15:37:23.780Z,67.71
2022-12-01T15:39:57.735Z,67.30
2022-12-01T15:42:39.275Z,67.70
2022-12-01T15:45:17.610Z,67.62
2022-12-01T15:47:48.148Z,67.43
2022-12-01T15:50:31.361Z,67.63
2022-12-01T15:53:01.325Z,67.72
2022-12-01T15:55:30.771Z,67.92
2022-12-01T15:58:01.728Z,67.46
2022-12-01T16:00:30.802Z,67.51
2022-12-01T16:03:02.061Z,67.85
2022-12-01T16:05:32.545Z,67.59
2022-12-01T16:08:14.118Z,67.52
2022-12-01T16:10:43.302Z,67.62
2022-12-01T16:13:31.190Z,67.53
2022-12-01T16:16:01.696Z,67.42
2022-12-01T16:18:32.469Z,67.76
2022-12-01T16:21:03.460Z,67.33
2022-12-01T16:23:32.925Z,67.33
2022-12-01T16:26:02.430Z,67.75
2022-12-01T16:28:32.991Z,67.62
2022-12-01T16:31:05.392Z,67.79
2022-12-01T16:33:36.535Z,67.42
2022-12-01T16:36:05.794Z,67.47
2022-12-01T16:38:35.071Z,67.55
2022-12-01T16:41:04.149Z,67.43
2022-12-01T16:43:33.495Z,67.26
2022-12-01T16:46:04.834Z,67.59
2022-12-01T16:48:35.063Z,67.45
2022-12-01T16:51:04.928Z,67.21
2022-12-01T16:53:34.285Z,67.08
2022-12-01T16:56:03.565Z,67.33
2022-12-01T16:58:32.943Z,66.95
2022-12-01T17:01:03.494Z,67.60
2022-12-01T17:03:32.915Z,67.26
2022-12-01T17:06:02.461Z,67.42
2022-12-01T17:08:31.829Z,67.41
2022-12-01T17:11:01.252Z,67.55
2022-12-01T17:13:30.674Z,67.23
2022-12-01T17:15:59.734Z,67.57
2022-12-01T17:18:30.692Z,67.53
2022-12-01T17:20:59.823Z,67.39
2022-12-01T17:23:29.580Z,67.50
2022-12-01T17:25:58.630Z,67.69
2022-12-01T17:28:28.032Z,67.45
2022-12-01T17:31:00.770Z,67.50
2022-12-01T17:33:31.747Z,67.53
2022-12-01T17:36:01.466Z,67.35
2022-12-01T17:38:31.023Z,67.44
2022-12-01T17:41:04.342Z,67.44
2022-12-01T17:43:34.187Z,67.65
2022-12-01T17:46:03.468Z,67.65
2022-12-01T17:48:37.591Z,67.46
2022-12-01T17:51:06.847Z,67.42
2022-12-01T17:53:36.547Z,67.41
2022-12-01T17:56:07.214Z,67.44
2022-12-01T17:58:36.916Z,67.67
2022-12-01T18:01:06.046Z,67.29
2022-12-01T18:03:35.417Z,67.54
2022-12-01T18:06:05.827Z,67.42
2022-12-01T18:08:35.908Z,67.52
2022-12-01T18:11:10.132Z,67.27
2022-12-01T18:13:39.718Z,67.44
2022-12-01T18:16:09.321Z,67.46
2022-12-01T18:18:38.741Z,67.18
2022-12-01T18:21:09.909Z,67.56
2022-12-01T18:23:40.347Z,67.09
2022-12-01T18:26:15.481Z,67.27
2022-12-01T18:28:45.616Z,67.03
2022-12-01T18:31:15.319Z,67.21
2022-12-01T18:33:45.425Z,67.01
2022-12-01T18:36:16.513Z,67.16
2022-12-01T18:38:47.321Z,67.41
2022-12-01T18:41:16.543Z,67.35
2022-12-01T18:43:45.951Z,67.28
2022-12-01T18:46:15.482Z,67.28
2022-12-01T18:48:45.860Z,67.37
2022-12-01T18:51:16.416Z,67.26
2022-12-01T18:53:46.366Z,67.59
2022-12-01T18:56:15.674Z,67.55
2022-12-01T18:58:45.170Z,67.68
2022-12-01T19:01:21.221Z,67.29
2022-12-01T19:03:50.759Z,67.27
2022-12-01T19:06:21.335Z,67.37
2022-12-01T19:08:51.016Z,67.42
2022-12-01T19:11:20.164Z,67.21
2022-12-01T19:13:49.713Z,66.89
2022-12-01T19:16:19.695Z,67.03
2022-12-01T19:18:49.240Z,67.07
2022-12-01T19:21:18.843Z,67.32
2022-12-01T19:23:49.751Z,67.21
2022-12-01T19:26:20.357Z,67.35
2022-12-01T19:28:50.074Z,67.60
2022-12-01T19:31:19.700Z,67.39
2022-12-01T19:33:49.274Z,67.12
2022-12-01T19:36:19.299Z,67.26
2022-12-01T19:38:52.194Z,67.30
2022-12-01T19:41:24.237Z,67.26
2022-12-01T19:43:53.828Z,67.00
2022-12-01T19:46:23.503Z,67.24
2022-12-01T19:48:54.815Z,67.44
2022-12-01T19:51:24.678Z,66.96
2022-12-01T19:53:55.745Z,66.99
2022-12-01T19:56:24.965Z,66.99
2022-12-01T19:58:55.458Z,67.26
2022-12-01T20:01:24.695Z,67.47
2022-12-01T20:03:54.613Z,66.89
2022-12-01T20:06:24.327Z,67.08
2022-12-01T20:08:53.824Z,67.40
2022-12-01T20:11:24.261Z,67.46
2022-12-01T20:13:53.698Z,67.36
2022-12-01T20:16:23.298Z,67.48
2022-12-01T20:18:52.871Z,67.48
2022-12-01T20:21:23.805Z,67.09
2022-12-01T20:23:55.412Z,67.04
2022-12-01T20:26:30.415Z,67.25
2022-12-01T20:29:01.045Z,67.14
2022-12-01T20:31:30.790Z,67.24
2022-12-01T20:34:00.940Z,67.41
2022-12-01T20:36:30.034Z,67.16
2022-12-01T20:38:59.494Z,67.27
2022-12-01T20:41:30.015Z,67.37
2022-12-01T20:44:05.371Z,67.32
2022-12-01T20:46:36.375Z,67.40
2022-12-01T20:49:06.037Z,67.15
2022-12-01T20:51:35.171Z,67.24
2022-12-01T20:54:27.420Z,67.05
2022-12-01T20:56:56.259Z,67.17
2022-12-01T20:59:26.232Z,67.51
2022-12-01T21:01:55.547Z,67.26
2022-12-01T21:04:25.049Z,67.28
2022-12-01T21:06:56.103Z,67.30
2022-12-01T21:09:26.215Z,67.45
2022-12-01T21:12:15.068Z,67.25
2022-12-01T21:14:46.068Z,67.35
2022-12-01T21:17:19.859Z,67.57
2022-12-01T21:19:51.442Z,67.52
2022-12-01T21:22:20.587Z,67.34
2022-12-01T21:24:51.729Z,67.33
2022-12-01T21:27:22.464Z,67.50
2022-12-01T21:29:52.206Z,67.43
2022-12-01T21:32:21.810Z,67.27
2022-12-01T21:34:51.506Z,67.27
2022-12-01T21:37:22.444Z,67.55
2022-12-01T21:39:52.688Z,67.56
2022-12-01T21:42:24.023Z,67.46
2022-12-01T21:44:53.671Z,67.31
2022-12-01T21:47:23.390Z,67.48
2022-12-01T21:49:54.047Z,67.09
2022-12-01T21:52:23.716Z,67.09
2022-12-01T21:54:53.279Z,67.10
2022-12-01T21:57:28.957Z,67.32
2022-12-01T21:59:59.569Z,67.28
2022-12-01T22:02:31.020Z,67.22
2022-12-01T22:05:00.421Z,67.27
2022-12-01T22:07:29.542Z,67.41
2022-12-01T22:09:58.967Z,67.54
2022-12-01T22:12:30.005Z,67.48
2022-12-01T22:15:00.367Z,67.43
2022-12-01T22:17:29.433Z,67.41
2022-12-01T22:19:59.439Z,67.56
2022-12-01T22:22:28.984Z,67.26
2022-12-01T22:24:59.500Z,67.43
2022-12-01T22:27:31.063Z,67.49
2022-12-01T22:30:01.618Z,67.66
2022-12-01T22:32:34.686Z,67.41
2022-12-01T22:35:16.832Z,67.49
2022-12-01T22:37:46.448Z,67.45
2022-12-01T22:40:33.441Z,67.54
2022-12-01T22:43:14.439Z,67.30
2022-12-01T22:45:43.981Z,67.18
2022-12-01T22:48:15.643Z,67.77
2022-12-01T22:50:50.112Z,67.64
2022-12-01T22:53:30.487Z,67.57
2022-12-01T22:56:01.902Z,67.17
2022-12-01T22:58:32.729Z,67.74
2022-12-01T23:01:02.630Z,67.56
2022-12-01T23:03:31.681Z,67.34
2022-12-01T23:06:01.201Z,67.60
2022-12-01T23:08:30.439Z,67.58
2022-12-01T23:10:59.808Z,67.34
2022-12-01T23:13:29.476Z,67.34
2022-12-01T23:16:00.375Z,67.35
2022-12-01T23:18:29.805Z,67.35
2022-12-01T23:20:59.707Z,67.27
2022-12-01T23:23:29.397Z,67.22
2022-12-01T23:25:59.111Z,67.14
2022-12-01T23:28:28.104Z,67.45
2022-12-01T23:30:58.772Z,67.27
2022-12-01T23:33:29.498Z,67.18
2022-12-01T23:35:59.523Z,67.20
2022-12-01T23:38:30.396Z,67.31
2022-12-01T23:41:00.387Z,67.07
2022-12-01T23:43:30.563Z,67.43
2022-12-01T23:46:02.010Z,67.02
2022-12-01T23:48:33.237Z,67.30
2022-12-01T23:51:02.583Z,66.99
2022-12-01T23:53:32.485Z,67.01
2022-12-01T23:56:02.616Z,67.32
2022-12-01T23:58:31.618Z,67.13
